sensor_id;sensor_type;location;lat;lon;timestamp;temperature;humidity
12436;DHT22;6282;51.440;6.938;2023-04-06T00:00:25;3.60;99.90
12436;DHT22;6282;51.440;6.938;2023-04-06T00:02:52;3.80;99.90
12436;DHT22;6282;51.440;6.938;2023-04-06T00:05:19;3.60;99.90
12436;DHT22;6282;51.440;6.938;2023-04-06T00:07:47;3.70;99.90
12436;DHT22;6282;51.440;6.938;2023-04-06T00:10:15;3.50;99.90
12436;DHT22;6282;51.440;6.938;2023-04-06T00:12:42;3.60;99.90
12436;DHT22;6282;51.440;6.938;2023-04-06T00:15:09;3.50;99.90
12436;DHT22;6282;51.440;6.938;2023-04-06T00:17:38;3.40;99.90
12436;DHT22;6282;51.440;6.938;2023-04-06T00:20:06;3.40;99.90
12436;DHT22;6282;51.440;6.938;2023-04-06T00:22:33;3.40;99.90
12436;DHT22;6282;51.440;6.938;2023-04-06T00:25:01;3.30;99.90
12436;DHT22;6282;51.440;6.938;2023-04-06T00:27:27;3.30;99.90
12436;DHT22;6282;51.440;6.938;2023-04-06T00:29:55;3.20;99.90
12436;DHT22;6282;51.440;6.938;2023-04-06T00:32:22;3.40;99.90
12436;DHT22;6282;51.440;6.938;2023-04-06T00:34:50;3.20;99.90
12436;DHT22;6282;51.440;6.938;2023-04-06T00:37:17;3.30;99.90
12436;DHT22;6282;51.440;6.938;2023-04-06T00:39:44;3.10;99.90
12436;DHT22;6282;51.440;6.938;2023-04-06T00:42:12;3.30;99.90
12436;DHT22;6282;51.440;6.938;2023-04-06T00:44:40;3.20;99.90
12436;DHT22;6282;51.440;6.938;2023-04-06T00:47:07;3.10;99.90
12436;DHT22;6282;51.440;6.938;2023-04-06T00:49:34;3.00;99.90
12436;DHT22;6282;51.440;6.938;2023-04-06T00:52:03;3.10;99.90
12436;DHT22;6282;51.440;6.938;2023-04-06T00:54:30;3.00;99.90
12436;DHT22;6282;51.440;6.938;2023-04-06T00:56:57;3.00;99.90
12436;DHT22;6282;51.440;6.938;2023-04-06T00:59:24;3.10;99.90
12436;DHT22;6282;51.440;6.938;2023-04-06T01:01:51;3.00;99.90
12436;DHT22;6282;51.440;6.938;2023-04-06T01:04:18;2.90;99.90
12436;DHT22;6282;51.440;6.938;2023-04-06T01:06:45;3.10;99.90
12436;DHT22;6282;51.440;6.938;2023-04-06T01:09:13;3.30;99.90
12436;DHT22;6282;51.440;6.938;2023-04-06T01:11:40;3.60;99.90
12436;DHT22;6282;51.440;6.938;2023-04-06T01:14:07;3.80;99.90
12436;DHT22;6282;51.440;6.938;2023-04-06T01:16:34;4.30;99.90
12436;DHT22;6282;51.440;6.938;2023-04-06T01:19:07;4.40;99.90
12436;DHT22;6282;51.440;6.938;2023-04-06T01:21:34;4.80;99.90
12436;DHT22;6282;51.440;6.938;2023-04-06T01:24:03;4.80;99.90
12436;DHT22;6282;51.440;6.938;2023-04-06T01:26:30;4.80;99.90
12436;DHT22;6282;51.440;6.938;2023-04-06T01:28:57;4.90;99.90
12436;DHT22;6282;51.440;6.938;2023-04-06T01:31:25;4.80;99.90
12436;DHT22;6282;51.440;6.938;2023-04-06T01:33:51;4.80;99.90
12436;DHT22;6282;51.440;6.938;2023-04-06T01:36:19;4.70;99.90
12436;DHT22;6282;51.440;6.938;2023-04-06T01:38:46;4.70;99.90
12436;DHT22;6282;51.440;6.938;2023-04-06T01:41:14;4.80;99.90
12436;DHT22;6282;51.440;6.938;2023-04-06T01:43:41;4.70;99.90
12436;DHT22;6282;51.440;6.938;2023-04-06T01:46:08;4.70;99.90
12436;DHT22;6282;51.440;6.938;2023-04-06T01:48:35;4.60;99.90
12436;DHT22;6282;51.440;6.938;2023-04-06T01:51:02;4.60;99.90
12436;DHT22;6282;51.440;6.938;2023-04-06T01:53:29;4.60;99.90
12436;DHT22;6282;51.440;6.938;2023-04-06T01:55:56;4.60;99.90
12436;DHT22;6282;51.440;6.938;2023-04-06T01:58:24;4.50;99.90
12436;DHT22;6282;51.440;6.938;2023-04-06T02:00:51;4.50;99.90
12436;DHT22;6282;51.440;6.938;2023-04-06T02:03:18;4.60;99.90
12436;DHT22;6282;51.440;6.938;2023-04-06T02:05:45;4.50;99.90
12436;DHT22;6282;51.440;6.938;2023-04-06T02:08:12;4.50;99.90
12436;DHT22;6282;51.440;6.938;2023-04-06T02:10:39;4.40;99.90
12436;DHT22;6282;51.440;6.938;2023-04-06T02:13:06;4.40;99.90
12436;DHT22;6282;51.440;6.938;2023-04-06T02:15:34;4.40;99.90
12436;DHT22;6282;51.440;6.938;2023-04-06T02:18:01;4.30;99.90
12436;DHT22;6282;51.440;6.938;2023-04-06T02:20:28;4.30;99.90
12436;DHT22;6282;51.440;6.938;2023-04-06T02:22:58;4.30;99.90
12436;DHT22;6282;51.440;6.938;2023-04-06T02:25:25;4.30;99.90
12436;DHT22;6282;51.440;6.938;2023-04-06T02:27:52;4.30;99.90
12436;DHT22;6282;51.440;6.938;2023-04-06T02:30:19;4.30;99.90
12436;DHT22;6282;51.440;6.938;2023-04-06T02:32:47;4.30;99.90
12436;DHT22;6282;51.440;6.938;2023-04-06T02:35:14;4.30;99.90
12436;DHT22;6282;51.440;6.938;2023-04-06T02:37:41;4.30;99.90
12436;DHT22;6282;51.440;6.938;2023-04-06T02:40:09;4.30;99.90
12436;DHT22;6282;51.440;6.938;2023-04-06T02:42:36;4.20;99.90
12436;DHT22;6282;51.440;6.938;2023-04-06T02:45:04;4.10;99.90
12436;DHT22;6282;51.440;6.938;2023-04-06T02:47:31;4.20;99.90
12436;DHT22;6282;51.440;6.938;2023-04-06T02:49:59;4.20;99.90
12436;DHT22;6282;51.440;6.938;2023-04-06T02:52:26;4.30;99.90
12436;DHT22;6282;51.440;6.938;2023-04-06T02:54:53;4.10;99.90
12436;DHT22;6282;51.440;6.938;2023-04-06T02:57:19;4.10;99.90
12436;DHT22;6282;51.440;6.938;2023-04-06T02:59:46;4.10;99.90
12436;DHT22;6282;51.440;6.938;2023-04-06T03:02:13;4.10;99.90
12436;DHT22;6282;51.440;6.938;2023-04-06T03:04:40;4.20;99.90
12436;DHT22;6282;51.440;6.938;2023-04-06T03:07:08;4.20;99.90
12436;DHT22;6282;51.440;6.938;2023-04-06T03:09:36;4.30;99.90
12436;DHT22;6282;51.440;6.938;2023-04-06T03:12:03;4.20;99.90
12436;DHT22;6282;51.440;6.938;2023-04-06T03:14:30;4.20;99.90
12436;DHT22;6282;51.440;6.938;2023-04-06T03:16:57;4.20;99.90
12436;DHT22;6282;51.440;6.938;2023-04-06T03:19:24;4.10;99.90
12436;DHT22;6282;51.440;6.938;2023-04-06T03:21:51;4.10;99.90
12436;DHT22;6282;51.440;6.938;2023-04-06T03:24:19;4.10;99.90
12436;DHT22;6282;51.440;6.938;2023-04-06T03:26:46;4.00;99.90
12436;DHT22;6282;51.440;6.938;2023-04-06T03:29:13;3.90;99.90
12436;DHT22;6282;51.440;6.938;2023-04-06T03:31:40;3.90;99.90
12436;DHT22;6282;51.440;6.938;2023-04-06T03:34:07;3.90;99.90
12436;DHT22;6282;51.440;6.938;2023-04-06T03:36:34;3.90;99.90
12436;DHT22;6282;51.440;6.938;2023-04-06T03:39:01;4.00;99.90
12436;DHT22;6282;51.440;6.938;2023-04-06T03:41:29;4.00;99.90
12436;DHT22;6282;51.440;6.938;2023-04-06T03:43:56;4.10;99.90
12436;DHT22;6282;51.440;6.938;2023-04-06T03:46:23;4.00;99.90
12436;DHT22;6282;51.440;6.938;2023-04-06T03:48:50;4.10;99.90
12436;DHT22;6282;51.440;6.938;2023-04-06T03:51:17;4.00;99.90
12436;DHT22;6282;51.440;6.938;2023-04-06T03:53:44;4.00;99.90
12436;DHT22;6282;51.440;6.938;2023-04-06T03:56:11;4.10;99.90
12436;DHT22;6282;51.440;6.938;2023-04-06T03:58:39;4.00;99.90
12436;DHT22;6282;51.440;6.938;2023-04-06T04:01:06;4.00;99.90
12436;DHT22;6282;51.440;6.938;2023-04-06T04:03:33;4.10;99.90
12436;DHT22;6282;51.440;6.938;2023-04-06T04:06:00;4.00;99.90
12436;DHT22;6282;51.440;6.938;2023-04-06T04:08:26;3.90;99.90
12436;DHT22;6282;51.440;6.938;2023-04-06T04:10:53;3.90;99.90
12436;DHT22;6282;51.440;6.938;2023-04-06T04:13:20;4.10;99.90
12436;DHT22;6282;51.440;6.938;2023-04-06T04:15:49;4.10;99.90
12436;DHT22;6282;51.440;6.938;2023-04-06T04:18:16;4.10;99.90
12436;DHT22;6282;51.440;6.938;2023-04-06T04:20:43;4.10;99.90
12436;DHT22;6282;51.440;6.938;2023-04-06T04:23:10;4.20;99.90
12436;DHT22;6282;51.440;6.938;2023-04-06T04:25:37;4.20;99.90
12436;DHT22;6282;51.440;6.938;2023-04-06T04:28:04;4.20;99.90
12436;DHT22;6282;51.440;6.938;2023-04-06T04:30:31;4.20;99.90
12436;DHT22;6282;51.440;6.938;2023-04-06T04:32:59;4.10;99.90
12436;DHT22;6282;51.440;6.938;2023-04-06T04:35:26;4.20;99.90
12436;DHT22;6282;51.440;6.938;2023-04-06T04:37:53;4.20;99.90
12436;DHT22;6282;51.440;6.938;2023-04-06T04:40:20;4.30;99.90
12436;DHT22;6282;51.440;6.938;2023-04-06T04:42:47;4.20;99.90
12436;DHT22;6282;51.440;6.938;2023-04-06T04:45:14;4.20;99.90
12436;DHT22;6282;51.440;6.938;2023-04-06T04:47:41;4.20;99.90
12436;DHT22;6282;51.440;6.938;2023-04-06T04:50:10;4.20;99.90
12436;DHT22;6282;51.440;6.938;2023-04-06T04:52:37;4.20;99.90
12436;DHT22;6282;51.440;6.938;2023-04-06T04:55:05;4.20;99.90
12436;DHT22;6282;51.440;6.938;2023-04-06T04:57:32;4.20;99.90
12436;DHT22;6282;51.440;6.938;2023-04-06T04:59:59;4.30;99.90
12436;DHT22;6282;51.440;6.938;2023-04-06T05:02:27;4.40;99.90
12436;DHT22;6282;51.440;6.938;2023-04-06T05:04:54;4.20;99.90
12436;DHT22;6282;51.440;6.938;2023-04-06T05:07:22;4.20;99.90
12436;DHT22;6282;51.440;6.938;2023-04-06T05:09:49;4.30;99.90
12436;DHT22;6282;51.440;6.938;2023-04-06T05:12:16;4.20;99.90
12436;DHT22;6282;51.440;6.938;2023-04-06T05:14:43;4.20;99.90
12436;DHT22;6282;51.440;6.938;2023-04-06T05:17:10;4.20;99.90
12436;DHT22;6282;51.440;6.938;2023-04-06T05:19:37;4.30;99.90
12436;DHT22;6282;51.440;6.938;2023-04-06T05:22:04;4.30;99.90
12436;DHT22;6282;51.440;6.938;2023-04-06T05:24:32;4.30;99.90
12436;DHT22;6282;51.440;6.938;2023-04-06T05:27:00;4.30;99.90
12436;DHT22;6282;51.440;6.938;2023-04-06T05:29:27;4.30;99.90
12436;DHT22;6282;51.440;6.938;2023-04-06T05:31:54;4.50;99.90
12436;DHT22;6282;51.440;6.938;2023-04-06T05:34:21;4.40;99.90
12436;DHT22;6282;51.440;6.938;2023-04-06T05:36:48;4.40;99.90
12436;DHT22;6282;51.440;6.938;2023-04-06T05:39:15;4.40;99.90
12436;DHT22;6282;51.440;6.938;2023-04-06T05:41:43;4.50;99.90
12436;DHT22;6282;51.440;6.938;2023-04-06T05:44:10;4.60;99.90
12436;DHT22;6282;51.440;6.938;2023-04-06T05:46:37;4.60;99.90
12436;DHT22;6282;51.440;6.938;2023-04-06T05:49:04;4.50;99.90
12436;DHT22;6282;51.440;6.938;2023-04-06T05:51:31;4.60;99.90
12436;DHT22;6282;51.440;6.938;2023-04-06T05:53:59;4.70;99.90
12436;DHT22;6282;51.440;6.938;2023-04-06T05:56:26;4.70;99.90
12436;DHT22;6282;51.440;6.938;2023-04-06T05:58:54;4.80;99.90
12436;DHT22;6282;51.440;6.938;2023-04-06T06:01:21;4.80;99.90
12436;DHT22;6282;51.440;6.938;2023-04-06T06:03:48;4.70;99.90
12436;DHT22;6282;51.440;6.938;2023-04-06T06:06:15;4.90;99.90
12436;DHT22;6282;51.440;6.938;2023-04-06T06:08:42;5.00;99.90
12436;DHT22;6282;51.440;6.938;2023-04-06T06:11:08;4.90;99.90
12436;DHT22;6282;51.440;6.938;2023-04-06T06:13:36;5.00;99.90
12436;DHT22;6282;51.440;6.938;2023-04-06T06:16:04;5.10;99.90
12436;DHT22;6282;51.440;6.938;2023-04-06T06:18:31;5.10;99.90
12436;DHT22;6282;51.440;6.938;2023-04-06T06:20:58;5.10;99.90
12436;DHT22;6282;51.440;6.938;2023-04-06T06:23:25;5.20;99.90
12436;DHT22;6282;51.440;6.938;2023-04-06T06:25:52;5.30;99.90
12436;DHT22;6282;51.440;6.938;2023-04-06T06:28:19;5.30;99.90
12436;DHT22;6282;51.440;6.938;2023-04-06T06:30:46;5.40;99.90
12436;DHT22;6282;51.440;6.938;2023-04-06T06:33:14;5.50;99.90
12436;DHT22;6282;51.440;6.938;2023-04-06T06:35:41;5.60;99.90
12436;DHT22;6282;51.440;6.938;2023-04-06T06:38:08;5.70;99.90
12436;DHT22;6282;51.440;6.938;2023-04-06T06:40:35;5.80;99.90
12436;DHT22;6282;51.440;6.938;2023-04-06T06:43:02;6.20;99.90
12436;DHT22;6282;51.440;6.938;2023-04-06T06:45:29;6.60;99.90
12436;DHT22;6282;51.440;6.938;2023-04-06T06:47:56;6.90;99.90
12436;DHT22;6282;51.440;6.938;2023-04-06T06:50:24;7.30;99.90
12436;DHT22;6282;51.440;6.938;2023-04-06T06:52:51;7.60;99.90
12436;DHT22;6282;51.440;6.938;2023-04-06T06:55:20;9.70;99.90
12436;DHT22;6282;51.440;6.938;2023-04-06T06:57:47;10.10;99.90
12436;DHT22;6282;51.440;6.938;2023-04-06T07:00:14;9.80;99.90
12436;DHT22;6282;51.440;6.938;2023-04-06T07:02:41;9.30;99.90
12436;DHT22;6282;51.440;6.938;2023-04-06T07:05:09;10.00;99.90
12436;DHT22;6282;51.440;6.938;2023-04-06T07:07:37;10.70;99.90
12436;DHT22;6282;51.440;6.938;2023-04-06T07:10:05;11.10;99.90
12436;DHT22;6282;51.440;6.938;2023-04-06T07:12:32;11.90;99.90
12436;DHT22;6282;51.440;6.938;2023-04-06T07:14:59;11.90;99.90
12436;DHT22;6282;51.440;6.938;2023-04-06T07:17:26;12.10;99.90
12436;DHT22;6282;51.440;6.938;2023-04-06T07:19:53;11.90;99.90
12436;DHT22;6282;51.440;6.938;2023-04-06T07:22:19;12.70;99.90
12436;DHT22;6282;51.440;6.938;2023-04-06T07:24:48;13.60;99.90
12436;DHT22;6282;51.440;6.938;2023-04-06T07:27:15;12.80;99.90
12436;DHT22;6282;51.440;6.938;2023-04-06T07:29:44;12.10;99.90
12436;DHT22;6282;51.440;6.938;2023-04-06T07:32:11;12.40;99.90
12436;DHT22;6282;51.440;6.938;2023-04-06T07:34:38;13.00;99.90
12436;DHT22;6282;51.440;6.938;2023-04-06T07:37:05;13.10;99.90
12436;DHT22;6282;51.440;6.938;2023-04-06T07:39:31;13.30;99.90
12436;DHT22;6282;51.440;6.938;2023-04-06T07:42:00;14.40;99.90
12436;DHT22;6282;51.440;6.938;2023-04-06T07:44:26;14.20;99.90
12436;DHT22;6282;51.440;6.938;2023-04-06T07:46:53;14.40;99.90
12436;DHT22;6282;51.440;6.938;2023-04-06T07:49:20;14.30;99.90
12436;DHT22;6282;51.440;6.938;2023-04-06T07:51:48;13.80;99.90
12436;DHT22;6282;51.440;6.938;2023-04-06T07:54:15;13.60;99.90
12436;DHT22;6282;51.440;6.938;2023-04-06T07:56:42;13.60;99.90
12436;DHT22;6282;51.440;6.938;2023-04-06T07:59:10;12.70;99.90
12436;DHT22;6282;51.440;6.938;2023-04-06T08:01:37;12.30;99.90
12436;DHT22;6282;51.440;6.938;2023-04-06T08:04:04;11.80;99.90
12436;DHT22;6282;51.440;6.938;2023-04-06T08:06:31;11.50;99.90
12436;DHT22;6282;51.440;6.938;2023-04-06T08:08:58;11.70;99.90
12436;DHT22;6282;51.440;6.938;2023-04-06T08:11:25;12.20;99.90
12436;DHT22;6282;51.440;6.938;2023-04-06T08:13:53;12.10;99.90
12436;DHT22;6282;51.440;6.938;2023-04-06T08:16:22;12.10;99.90
12436;DHT22;6282;51.440;6.938;2023-04-06T08:18:49;11.60;99.90
12436;DHT22;6282;51.440;6.938;2023-04-06T08:21:16;12.30;99.90
12436;DHT22;6282;51.440;6.938;2023-04-06T08:23:43;13.60;99.90
12436;DHT22;6282;51.440;6.938;2023-04-06T08:26:11;12.20;99.90
12436;DHT22;6282;51.440;6.938;2023-04-06T08:28:38;11.40;99.90
12436;DHT22;6282;51.440;6.938;2023-04-06T08:31:05;11.90;99.90
12436;DHT22;6282;51.440;6.938;2023-04-06T08:33:35;11.30;99.90
12436;DHT22;6282;51.440;6.938;2023-04-06T08:36:09;12.20;99.90
12436;DHT22;6282;51.440;6.938;2023-04-06T08:38:36;12.70;99.90
12436;DHT22;6282;51.440;6.938;2023-04-06T08:41:07;13.30;99.90
12436;DHT22;6282;51.440;6.938;2023-04-06T08:43:41;13.40;99.90
12436;DHT22;6282;51.440;6.938;2023-04-06T08:46:09;13.60;99.90
12436;DHT22;6282;51.440;6.938;2023-04-06T08:48:38;13.60;99.90
12436;DHT22;6282;51.440;6.938;2023-04-06T08:51:05;13.70;99.90
12436;DHT22;6282;51.440;6.938;2023-04-06T08:53:32;13.70;99.90
12436;DHT22;6282;51.440;6.938;2023-04-06T08:55:59;13.30;99.90
12436;DHT22;6282;51.440;6.938;2023-04-06T08:58:28;13.00;99.90
12436;DHT22;6282;51.440;6.938;2023-04-06T09:00:56;13.00;99.90
12436;DHT22;6282;51.440;6.938;2023-04-06T09:03:24;12.80;99.90
12436;DHT22;6282;51.440;6.938;2023-04-06T09:05:54;12.30;99.90
12436;DHT22;6282;51.440;6.938;2023-04-06T09:08:21;13.50;99.90
12436;DHT22;6282;51.440;6.938;2023-04-06T09:10:48;13.30;99.90
12436;DHT22;6282;51.440;6.938;2023-04-06T09:13:17;13.40;99.90
12436;DHT22;6282;51.440;6.938;2023-04-06T09:15:44;13.90;99.90
12436;DHT22;6282;51.440;6.938;2023-04-06T09:18:11;14.60;99.90
12436;DHT22;6282;51.440;6.938;2023-04-06T09:20:38;14.80;99.90
12436;DHT22;6282;51.440;6.938;2023-04-06T09:23:06;14.10;99.90
12436;DHT22;6282;51.440;6.938;2023-04-06T09:25:33;13.90;99.90
12436;DHT22;6282;51.440;6.938;2023-04-06T09:28:00;14.20;99.90
12436;DHT22;6282;51.440;6.938;2023-04-06T09:30:28;13.80;99.90
12436;DHT22;6282;51.440;6.938;2023-04-06T09:32:56;12.90;99.90
12436;DHT22;6282;51.440;6.938;2023-04-06T09:35:24;12.90;99.90
12436;DHT22;6282;51.440;6.938;2023-04-06T09:37:53;12.90;99.90
12436;DHT22;6282;51.440;6.938;2023-04-06T09:40:22;12.70;99.90
12436;DHT22;6282;51.440;6.938;2023-04-06T09:42:50;13.10;99.90
12436;DHT22;6282;51.440;6.938;2023-04-06T09:45:19;13.20;99.90
12436;DHT22;6282;51.440;6.938;2023-04-06T09:47:46;13.30;99.90
12436;DHT22;6282;51.440;6.938;2023-04-06T09:50:14;13.40;99.90
12436;DHT22;6282;51.440;6.938;2023-04-06T09:52:46;13.50;99.90
12436;DHT22;6282;51.440;6.938;2023-04-06T09:55:20;12.90;99.90
12436;DHT22;6282;51.440;6.938;2023-04-06T09:57:55;13.00;99.90
12436;DHT22;6282;51.440;6.938;2023-04-06T10:00:25;12.80;99.90
12436;DHT22;6282;51.440;6.938;2023-04-06T10:02:58;13.00;99.90
12436;DHT22;6282;51.440;6.938;2023-04-06T10:05:31;13.10;99.90
12436;DHT22;6282;51.440;6.938;2023-04-06T10:08:04;12.90;99.90
12436;DHT22;6282;51.440;6.938;2023-04-06T10:10:32;12.30;99.90
12436;DHT22;6282;51.440;6.938;2023-04-06T10:13:01;13.00;99.90
12436;DHT22;6282;51.440;6.938;2023-04-06T10:15:28;13.00;99.90
12436;DHT22;6282;51.440;6.938;2023-04-06T10:17:56;12.80;99.90
12436;DHT22;6282;51.440;6.938;2023-04-06T10:20:27;12.40;99.90
12436;DHT22;6282;51.440;6.938;2023-04-06T10:22:58;12.30;99.90
12436;DHT22;6282;51.440;6.938;2023-04-06T10:25:27;12.40;99.90
12436;DHT22;6282;51.440;6.938;2023-04-06T10:28:01;12.50;99.90
12436;DHT22;6282;51.440;6.938;2023-04-06T10:30:28;12.80;99.90
12436;DHT22;6282;51.440;6.938;2023-04-06T10:32:55;12.80;99.90
12436;DHT22;6282;51.440;6.938;2023-04-06T10:35:22;13.00;99.90
12436;DHT22;6282;51.440;6.938;2023-04-06T10:37:52;13.20;99.90
12436;DHT22;6282;51.440;6.938;2023-04-06T10:40:23;13.30;99.90
12436;DHT22;6282;51.440;6.938;2023-04-06T10:42:51;13.30;99.90
12436;DHT22;6282;51.440;6.938;2023-04-06T10:45:24;13.00;99.90
12436;DHT22;6282;51.440;6.938;2023-04-06T10:47:52;13.00;99.90
12436;DHT22;6282;51.440;6.938;2023-04-06T10:50:20;13.10;99.90
12436;DHT22;6282;51.440;6.938;2023-04-06T10:52:57;13.00;99.90
12436;DHT22;6282;51.440;6.938;2023-04-06T10:55:25;12.90;99.90
12436;DHT22;6282;51.440;6.938;2023-04-06T10:57:53;13.00;99.90
12436;DHT22;6282;51.440;6.938;2023-04-06T11:00:20;13.20;99.90
12436;DHT22;6282;51.440;6.938;2023-04-06T11:02:49;13.50;99.90
12436;DHT22;6282;51.440;6.938;2023-04-06T11:05:15;13.30;99.90
12436;DHT22;6282;51.440;6.938;2023-04-06T11:07:44;13.00;99.90
12436;DHT22;6282;51.440;6.938;2023-04-06T11:10:11;12.90;99.90
12436;DHT22;6282;51.440;6.938;2023-04-06T11:12:38;12.90;99.90
12436;DHT22;6282;51.440;6.938;2023-04-06T11:15:06;13.00;99.90
12436;DHT22;6282;51.440;6.938;2023-04-06T11:17:34;13.10;99.90
12436;DHT22;6282;51.440;6.938;2023-04-06T11:20:09;13.00;99.90
12436;DHT22;6282;51.440;6.938;2023-04-06T11:22:36;13.20;99.90
12436;DHT22;6282;51.440;6.938;2023-04-06T11:25:06;13.30;99.90
12436;DHT22;6282;51.440;6.938;2023-04-06T11:27:34;13.30;99.90
12436;DHT22;6282;51.440;6.938;2023-04-06T11:30:02;13.50;99.90
12436;DHT22;6282;51.440;6.938;2023-04-06T11:32:29;13.60;99.90
12436;DHT22;6282;51.440;6.938;2023-04-06T11:34:58;13.50;99.90
12436;DHT22;6282;51.440;6.938;2023-04-06T11:37:27;13.20;99.90
12436;DHT22;6282;51.440;6.938;2023-04-06T11:39:54;13.50;99.90
12436;DHT22;6282;51.440;6.938;2023-04-06T11:42:23;13.20;99.90
12436;DHT22;6282;51.440;6.938;2023-04-06T11:44:51;13.30;99.90
12436;DHT22;6282;51.440;6.938;2023-04-06T11:47:19;13.10;99.90
12436;DHT22;6282;51.440;6.938;2023-04-06T11:49:47;13.30;99.90
12436;DHT22;6282;51.440;6.938;2023-04-06T11:52:16;13.50;99.90
12436;DHT22;6282;51.440;6.938;2023-04-06T11:54:46;13.40;99.90
12436;DHT22;6282;51.440;6.938;2023-04-06T11:57:13;13.60;99.90
12436;DHT22;6282;51.440;6.938;2023-04-06T11:59:40;13.20;99.90
12436;DHT22;6282;51.440;6.938;2023-04-06T12:02:07;13.00;99.90
12436;DHT22;6282;51.440;6.938;2023-04-06T12:04:34;12.90;99.90
12436;DHT22;6282;51.440;6.938;2023-04-06T12:07:01;13.00;99.90
12436;DHT22;6282;51.440;6.938;2023-04-06T12:09:28;13.10;99.90
12436;DHT22;6282;51.440;6.938;2023-04-06T12:11:56;13.20;99.90
12436;DHT22;6282;51.440;6.938;2023-04-06T12:14:23;12.90;99.90
12436;DHT22;6282;51.440;6.938;2023-04-06T12:16:50;13.00;99.90
12436;DHT22;6282;51.440;6.938;2023-04-06T12:19:17;13.00;99.90
12436;DHT22;6282;51.440;6.938;2023-04-06T12:21:44;13.00;99.90
12436;DHT22;6282;51.440;6.938;2023-04-06T12:24:11;12.90;99.90
12436;DHT22;6282;51.440;6.938;2023-04-06T12:26:38;13.00;99.90
12436;DHT22;6282;51.440;6.938;2023-04-06T12:29:08;12.90;99.90
12436;DHT22;6282;51.440;6.938;2023-04-06T12:31:35;12.90;99.90
12436;DHT22;6282;51.440;6.938;2023-04-06T12:34:04;12.90;99.90
12436;DHT22;6282;51.440;6.938;2023-04-06T12:36:31;13.10;99.90
12436;DHT22;6282;51.440;6.938;2023-04-06T12:38:58;12.90;99.90
12436;DHT22;6282;51.440;6.938;2023-04-06T12:41:26;12.80;99.90
12436;DHT22;6282;51.440;6.938;2023-04-06T12:43:52;12.40;99.90
12436;DHT22;6282;51.440;6.938;2023-04-06T12:46:21;12.50;99.90
12436;DHT22;6282;51.440;6.938;2023-04-06T12:48:48;12.50;99.90
12436;DHT22;6282;51.440;6.938;2023-04-06T12:51:15;12.60;99.90
12436;DHT22;6282;51.440;6.938;2023-04-06T12:53:42;12.30;99.90
12436;DHT22;6282;51.440;6.938;2023-04-06T12:56:13;12.40;99.90
12436;DHT22;6282;51.440;6.938;2023-04-06T12:58:40;12.60;99.90
12436;DHT22;6282;51.440;6.938;2023-04-06T13:01:07;12.40;99.90
12436;DHT22;6282;51.440;6.938;2023-04-06T13:03:36;12.70;99.90
12436;DHT22;6282;51.440;6.938;2023-04-06T13:06:03;12.60;99.90
12436;DHT22;6282;51.440;6.938;2023-04-06T13:08:30;12.80;99.90
12436;DHT22;6282;51.440;6.938;2023-04-06T13:10:57;12.80;99.90
12436;DHT22;6282;51.440;6.938;2023-04-06T13:13:25;12.80;99.90
12436;DHT22;6282;51.440;6.938;2023-04-06T13:15:53;12.70;99.90
12436;DHT22;6282;51.440;6.938;2023-04-06T13:18:21;12.40;99.90
12436;DHT22;6282;51.440;6.938;2023-04-06T13:20:49;12.60;99.90
12436;DHT22;6282;51.440;6.938;2023-04-06T13:23:16;12.40;99.90
12436;DHT22;6282;51.440;6.938;2023-04-06T13:25:43;12.20;99.90
12436;DHT22;6282;51.440;6.938;2023-04-06T13:28:11;12.50;99.90
12436;DHT22;6282;51.440;6.938;2023-04-06T13:30:37;12.50;99.90
12436;DHT22;6282;51.440;6.938;2023-04-06T13:33:05;12.70;99.90
12436;DHT22;6282;51.440;6.938;2023-04-06T13:35:32;12.50;99.90
12436;DHT22;6282;51.440;6.938;2023-04-06T13:38:02;12.50;99.90
12436;DHT22;6282;51.440;6.938;2023-04-06T13:40:30;12.30;99.90
12436;DHT22;6282;51.440;6.938;2023-04-06T13:42:56;12.40;99.90
12436;DHT22;6282;51.440;6.938;2023-04-06T13:45:23;12.40;99.90
12436;DHT22;6282;51.440;6.938;2023-04-06T13:47:50;12.50;99.90
12436;DHT22;6282;51.440;6.938;2023-04-06T13:50:17;12.40;99.90
12436;DHT22;6282;51.440;6.938;2023-04-06T13:52:44;12.40;99.90
12436;DHT22;6282;51.440;6.938;2023-04-06T13:55:12;12.20;99.90
12436;DHT22;6282;51.440;6.938;2023-04-06T13:57:40;12.20;99.90
12436;DHT22;6282;51.440;6.938;2023-04-06T14:00:08;12.30;99.90
12436;DHT22;6282;51.440;6.938;2023-04-06T14:02:37;12.10;99.90
12436;DHT22;6282;51.440;6.938;2023-04-06T14:05:04;12.00;99.90
12436;DHT22;6282;51.440;6.938;2023-04-06T14:07:31;12.00;99.90
12436;DHT22;6282;51.440;6.938;2023-04-06T14:09:58;12.10;99.90
12436;DHT22;6282;51.440;6.938;2023-04-06T14:12:26;11.80;99.90
12436;DHT22;6282;51.440;6.938;2023-04-06T14:14:53;12.00;99.90
12436;DHT22;6282;51.440;6.938;2023-04-06T14:17:20;11.90;99.90
12436;DHT22;6282;51.440;6.938;2023-04-06T14:19:47;11.80;99.90
12436;DHT22;6282;51.440;6.938;2023-04-06T14:22:14;11.70;99.90
12436;DHT22;6282;51.440;6.938;2023-04-06T14:24:42;11.80;99.90
12436;DHT22;6282;51.440;6.938;2023-04-06T14:27:08;11.90;99.90
12436;DHT22;6282;51.440;6.938;2023-04-06T14:29:37;11.60;99.90
12436;DHT22;6282;51.440;6.938;2023-04-06T14:32:04;11.40;99.90
12436;DHT22;6282;51.440;6.938;2023-04-06T14:34:30;11.20;99.90
12436;DHT22;6282;51.440;6.938;2023-04-06T14:36:57;11.40;99.90
12436;DHT22;6282;51.440;6.938;2023-04-06T14:39:25;11.40;99.90
12436;DHT22;6282;51.440;6.938;2023-04-06T14:41:52;11.10;99.90
12436;DHT22;6282;51.440;6.938;2023-04-06T14:44:19;10.90;99.90
12436;DHT22;6282;51.440;6.938;2023-04-06T14:46:47;10.80;99.90
12436;DHT22;6282;51.440;6.938;2023-04-06T14:49:15;10.90;99.90
12436;DHT22;6282;51.440;6.938;2023-04-06T14:51:49;11.10;99.90
12436;DHT22;6282;51.440;6.938;2023-04-06T14:54:27;11.40;99.90
12436;DHT22;6282;51.440;6.938;2023-04-06T14:56:54;11.40;99.90
12436;DHT22;6282;51.440;6.938;2023-04-06T14:59:22;11.10;99.90
12436;DHT22;6282;51.440;6.938;2023-04-06T15:01:50;11.00;99.90
12436;DHT22;6282;51.440;6.938;2023-04-06T15:04:17;11.20;99.90
12436;DHT22;6282;51.440;6.938;2023-04-06T15:06:44;10.90;99.90
12436;DHT22;6282;51.440;6.938;2023-04-06T15:09:43;11.10;99.90
12436;DHT22;6282;51.440;6.938;2023-04-06T15:12:19;11.10;99.90
12436;DHT22;6282;51.440;6.938;2023-04-06T15:14:46;11.20;99.90
12436;DHT22;6282;51.440;6.938;2023-04-06T15:17:14;11.30;99.90
12436;DHT22;6282;51.440;6.938;2023-04-06T15:19:41;11.40;99.90
12436;DHT22;6282;51.440;6.938;2023-04-06T15:22:08;11.10;99.90
12436;DHT22;6282;51.440;6.938;2023-04-06T15:24:36;11.10;99.90
12436;DHT22;6282;51.440;6.938;2023-04-06T15:27:03;10.90;99.90
12436;DHT22;6282;51.440;6.938;2023-04-06T15:33:24;10.70;99.90
12436;DHT22;6282;51.440;6.938;2023-04-06T15:36:24;10.30;99.90
12436;DHT22;6282;51.440;6.938;2023-04-06T15:38:54;10.20;99.90
12436;DHT22;6282;51.440;6.938;2023-04-06T15:41:38;10.10;99.90
12436;DHT22;6282;51.440;6.938;2023-04-06T15:45:53;9.80;99.90
12436;DHT22;6282;51.440;6.938;2023-04-06T15:47:37;9.70;99.90
12436;DHT22;6282;51.440;6.938;2023-04-06T15:53:19;9.70;99.90
12436;DHT22;6282;51.440;6.938;2023-04-06T15:55:46;9.50;99.90
12436;DHT22;6282;51.440;6.938;2023-04-06T15:58:13;9.50;99.90
12436;DHT22;6282;51.440;6.938;2023-04-06T16:00:40;9.40;99.90
12436;DHT22;6282;51.440;6.938;2023-04-06T16:03:07;9.20;99.90